METAR Formatted Surface Weather Observation
Issued by NWS

Home | Current Version | Previous Version | Text Only | Print | Product List | Glossary On
Versions: 1 2 3 4 5 6 7 8 9 10 11 12 13 14 15
000
SAUS41 KLWX 201457 COR
MTRNHK
METAR KNHK 201452Z 28009KT 10SM CLR 07/M06 A3021 RMK AO2 SLP230
T00671056 51022



USA.gov is the U.S. government's official web portal to all federal, state and local government web resources and services.